Time,TemperatureF,DewpointF,PressureIn,WindDirection,WindDirectionDegrees,WindSpeedMPH,WindSpeedGustMPH,Humidity,HourlyPrecipIn,Conditions,Clouds,dailyrainin,SolarRadiationWatts/m^2,SoftwareType,DateUTC
2013-09-01 00:01:00,68.6,65.9,29.81,North,5,0.0,0.0,91,0.00,FEW,,0.00,0.0,WeatherDisplay:10.37,2013-09-01 04:01:00,
2013-09-01 00:06:00,68.4,66.0,29.81,North,5,0.0,0.0,92,0.00,FEW,,0.00,0.0,WeatherDisplay:10.37,2013-09-01 04:06:00,
2013-09-01 00:11:00,68.2,65.8,29.81,North,5,0.0,0.0,92,0.00,FEW,,0.00,0.0,WeatherDisplay:10.37,2013-09-01 04:11:00,
2013-09-01 00:16:00,68.2,65.8,29.80,North,5,0.0,0.0,92,0.00,FEW,,0.00,0.0,WeatherDisplay:10.37,2013-09-01 04:16:00,
2013-09-01 00:21:00,68.2,66.1,29.80,North,5,0.0,0.0,93,0.00,FEW,,0.00,0.0,WeatherDisplay:10.37,2013-09-01 04:21:00,
2013-09-01 00:26:00,68.2,66.1,29.80,North,5,0.0,0.0,93,0.00,FEW,,0.00,0.0,WeatherDisplay:10.37,2013-09-01 04:26:00,
2013-09-01 00:31:00,68.4,66.3,29.80,North,5,0.0,0.0,93,0.00,FEW,,0.00,0.0,WeatherDisplay:10.37,2013-09-01 04:31:00,
2013-09-01 00:41:00,68.4,66.3,29.80,North,5,0.0,0.0,93,0.00,FEW,,0.00,0.0,WeatherDisplay:10.37,2013-09-01 04:41:00,
2013-09-01 00:51:00,67.9,66.1,29.80,North,5,0.0,0.0,94,0.00,FEW,,0.00,0.0,WeatherDisplay:10.37,2013-09-01 04:51:00,
2013-09-01 01:01:00,67.7,65.9,29.80,North,5,0.0,0.0,94,0.00,FEW,,0.00,0.0,WeatherDisplay:10.37,2013-09-01 05:01:00,
2013-09-01 01:10:00,67.6,65.8,29.80,North,5,0.0,0.0,94,0.00,FEW,,0.00,0.0,WeatherDisplay:10.37,2013-09-01 05:10:00,
2013-09-01 01:20:00,67.4,65.9,29.80,North,5,0.0,0.0,95,0.00,FEW,,0.00,0.0,WeatherDisplay:10.37,2013-09-01 05:20:00,
2013-09-01 01:25:00,67.4,65.9,29.80,North,5,0.0,0.0,95,0.00,FEW,,0.00,0.0,WeatherDisplay:10.37,2013-09-01 05:25:00,
2013-09-01 01:30:00,67.2,65.7,29.80,North,5,0.0,0.0,95,0.00,FEW,,0.00,0.0,WeatherDisplay:10.37,2013-09-01 05:30:00,
2013-09-01 01:36:00,67.2,65.7,29.80,North,5,0.0,0.0,95,0.00,FEW,,0.00,0.0,WeatherDisplay:10.37,2013-09-01 05:36:00,
2013-09-01 01:41:00,67.1,65.6,29.80,North,5,0.0,0.0,95,0.00,FEW,,0.00,0.0,WeatherDisplay:10.37,2013-09-01 05:41:00,
2013-09-01 01:46:00,67.1,65.6,29.80,North,5,0.0,0.0,95,0.00,FEW,,0.00,0.0,WeatherDisplay:10.37,2013-09-01 05:46:00,
2013-09-01 01:51:00,67.1,65.6,29.80,North,5,0.0,0.0,95,0.00,OVC,,0.00,0.0,WeatherDisplay:10.37,2013-09-01 05:51:00,
2013-09-01 02:01:00,67.1,65.9,29.80,North,5,0.0,0.0,96,0.00,OVC,,0.00,0.0,WeatherDisplay:10.37,2013-09-01 06:01:00,
2013-09-01 02:06:00,67.1,65.9,29.80,North,5,0.0,0.0,96,0.00,OVC,,0.00,0.0,WeatherDisplay:10.37,2013-09-01 06:06:00,
2013-09-01 02:11:00,67.2,66.1,29.80,North,5,0.0,0.0,96,0.00,OVC,,0.00,0.0,WeatherDisplay:10.37,2013-09-01 06:11:00,
2013-09-01 02:16:00,67.4,66.2,29.81,North,5,0.0,0.0,96,0.00,OVC,,0.00,0.0,WeatherDisplay:10.37,2013-09-01 06:16:00,
2013-09-01 02:21:00,67.5,66.4,29.81,North,5,0.0,0.0,96,0.00,BKN,,0.00,0.0,WeatherDisplay:10.37,2013-09-01 06:21:00,
2013-09-01 02:26:00,67.6,66.4,29.81,North,5,0.0,0.0,96,0.00,BKN,,0.00,0.0,WeatherDisplay:10.37,2013-09-01 06:26:00,
2013-09-01 02:31:00,67.6,66.4,29.80,North,5,0.0,0.0,96,0.00,BKN,,0.00,0.0,WeatherDisplay:10.37,2013-09-01 06:31:00,
2013-09-01 02:41:00,67.7,66.5,29.80,North,5,0.0,0.0,96,0.00,BKN,,0.00,0.0,WeatherDisplay:10.37,2013-09-01 06:41:00,
2013-09-01 02:46:00,67.7,66.5,29.80,North,5,0.0,0.0,96,0.00,BKN,,0.00,0.0,WeatherDisplay:10.37,2013-09-01 06:46:00,
2013-09-01 02:51:00,67.9,67.0,29.80,North,5,0.0,0.0,97,0.00,BKN,,0.00,0.0,WeatherDisplay:10.37,2013-09-01 06:51:00,
2013-09-01 02:56:00,68.1,67.2,29.80,North,5,0.0,1.0,97,0.00,BKN,,0.00,0.0,WeatherDisplay:10.37,2013-09-01 06:56:00,
2013-09-01 03:01:00,68.2,67.3,29.80,North,5,0.0,1.0,97,0.00,BKN,,0.00,0.0,WeatherDisplay:10.37,2013-09-01 07:01:00,
2013-09-01 03:06:00,68.2,67.3,29.79,North,5,0.0,0.0,97,0.00,BKN,,0.00,0.0,WeatherDisplay:10.37,2013-09-01 07:06:00,
2013-09-01 03:11:00,68.2,67.3,29.79,North,5,0.0,0.0,97,0.00,BKN,,0.00,0.0,WeatherDisplay:10.37,2013-09-01 07:11:00,
2013-09-01 03:16:00,68.1,66.9,29.79,North,5,0.0,0.0,96,0.00,BKN,,0.00,0.0,WeatherDisplay:10.37,2013-09-01 07:16:00,
2013-09-01 03:21:00,68.1,67.2,29.79,North,5,0.0,0.0,97,0.00,BKN,,0.00,0.0,WeatherDisplay:10.37,2013-09-01 07:21:00,
2013-09-01 03:26:00,68.1,67.2,29.79,North,5,0.0,0.0,97,0.00,BKN,,0.00,0.0,WeatherDisplay:10.37,2013-09-01 07:26:00,
2013-09-01 03:31:00,67.9,67.0,29.79,North,5,0.0,0.0,97,0.00,BKN,,0.00,0.0,WeatherDisplay:10.37,2013-09-01 07:31:00,
2013-09-01 03:36:00,67.9,67.0,29.79,North,5,0.0,0.0,97,0.00,BKN,,0.00,0.0,WeatherDisplay:10.37,2013-09-01 07:36:00,
2013-09-01 03:41:00,67.9,67.0,29.79,North,5,0.0,0.0,97,0.00,BKN,,0.00,0.0,WeatherDisplay:10.37,2013-09-01 07:41:00,
2013-09-01 03:46:00,67.9,67.0,29.80,North,5,0.0,0.0,97,0.00,BKN,,0.00,0.0,WeatherDisplay:10.37,2013-09-01 07:46:00,
2013-09-01 03:51:00,67.9,67.0,29.80,North,5,0.0,0.0,97,0.00,BKN,,0.00,0.0,WeatherDisplay:10.37,2013-09-01 07:51:00,
2013-09-01 03:56:00,67.9,67.0,29.80,North,5,0.0,1.0,97,0.00,BKN,,0.00,0.0,WeatherDisplay:10.37,2013-09-01 07:56:00,
2013-09-01 04:01:00,67.9,67.0,29.80,North,5,0.0,0.0,97,0.00,BKN,,0.00,0.0,WeatherDisplay:10.37,2013-09-01 08:01:00,
2013-09-01 04:06:00,67.9,67.0,29.80,North,5,0.0,0.0,97,0.00,BKN,,0.00,0.0,WeatherDisplay:10.37,2013-09-01 08:06:00,
2013-09-01 04:11:00,67.9,67.0,29.80,North,5,0.0,0.0,97,0.00,BKN,,0.00,0.0,WeatherDisplay:10.37,2013-09-01 08:11:00,
2013-09-01 04:16:00,68.1,67.2,29.80,North,5,0.0,0.0,97,0.00,BKN,,0.00,0.0,WeatherDisplay:10.37,2013-09-01 08:16:00,
2013-09-01 04:21:00,68.1,67.2,29.80,North,5,0.0,0.0,97,0.00,BKN,,0.00,0.0,WeatherDisplay:10.37,2013-09-01 08:21:00,
2013-09-01 04:26:00,68.2,67.3,29.80,North,5,0.0,0.0,97,0.00,BKN,,0.00,0.0,WeatherDisplay:10.37,2013-09-01 08:26:00,
2013-09-01 04:31:00,68.2,67.3,29.80,North,5,0.0,0.0,97,0.00,BKN,,0.00,0.0,WeatherDisplay:10.37,2013-09-01 08:31:00,
2013-09-01 04:36:00,68.4,67.5,29.80,North,5,0.0,0.0,97,0.00,BKN,,0.00,0.0,WeatherDisplay:10.37,2013-09-01 08:36:00,
2013-09-01 04:41:00,68.4,67.5,29.80,North,5,0.0,0.0,97,0.00,BKN,,0.00,0.0,WeatherDisplay:10.37,2013-09-01 08:41:00,
2013-09-01 04:46:00,68.4,67.5,29.80,North,5,0.0,0.0,97,0.00,BKN,,0.00,0.0,WeatherDisplay:10.37,2013-09-01 08:46:00,
2013-09-01 04:51:00,68.4,67.5,29.80,North,5,0.0,1.0,97,0.00,BKN,,0.00,0.0,WeatherDisplay:10.37,2013-09-01 08:51:00,
2013-09-01 05:01:00,68.4,67.5,29.80,North,5,0.0,0.0,97,0.00,BKN,,0.00,0.0,WeatherDisplay:10.37,2013-09-01 09:01:00,
2013-09-01 05:06:00,68.4,67.5,29.80,North,5,0.0,0.0,97,0.00,OVC,,0.00,0.0,WeatherDisplay:10.37,2013-09-01 09:06:00,
2013-09-01 05:11:00,68.4,67.5,29.80,North,5,0.0,2.0,97,0.00,OVC,,0.00,0.0,WeatherDisplay:10.37,2013-09-01 09:11:00,
2013-09-01 05:16:00,68.4,67.5,29.80,North,5,0.0,0.0,97,0.00,OVC,,0.00,0.0,WeatherDisplay:10.37,2013-09-01 09:16:00,
2013-09-01 05:21:00,68.4,67.5,29.80,North,5,0.0,0.0,97,0.00,OVC,,0.00,0.0,WeatherDisplay:10.37,2013-09-01 09:21:00,
2013-09-01 05:26:00,68.4,67.5,29.80,North,5,0.0,1.0,97,0.00,OVC,,0.00,0.0,WeatherDisplay:10.37,2013-09-01 09:26:00,
2013-09-01 05:31:00,68.4,67.5,29.80,North,5,0.0,0.0,97,0.00,OVC,,0.00,0.0,WeatherDisplay:10.37,2013-09-01 09:31:00,
2013-09-01 05:36:00,68.6,67.7,29.80,North,5,0.0,0.0,97,0.00,OVC,,0.00,0.0,WeatherDisplay:10.37,2013-09-01 09:36:00,
2013-09-01 05:41:00,68.6,67.7,29.80,North,5,0.0,0.0,97,0.00,OVC,,0.00,0.0,WeatherDisplay:10.37,2013-09-01 09:41:00,
2013-09-01 05:46:00,68.6,67.7,29.80,North,5,0.0,0.0,97,0.00,OVC,,0.00,0.0,WeatherDisplay:10.37,2013-09-01 09:46:00,
2013-09-01 05:51:00,68.6,67.7,29.80,North,5,0.0,0.0,97,0.00,OVC,,0.00,0.0,WeatherDisplay:10.37,2013-09-01 09:51:00,
2013-09-01 05:56:00,68.7,67.8,29.80,North,5,0.0,0.0,97,0.00,OVC,,0.00,0.0,WeatherDisplay:10.37,2013-09-01 09:56:00,
2013-09-01 06:01:00,68.7,67.8,29.80,North,5,0.0,0.0,97,0.00,OVC,,0.00,0.0,WeatherDisplay:10.37,2013-09-01 10:01:00,
2013-09-01 06:06:00,68.7,67.8,29.80,North,5,0.0,1.0,97,0.00,OVC,,0.00,0.0,WeatherDisplay:10.37,2013-09-01 10:06:00,
2013-09-01 06:11:00,68.7,67.8,29.80,North,5,0.0,0.0,97,0.00,OVC,,0.00,0.0,WeatherDisplay:10.37,2013-09-01 10:11:00,
2013-09-01 06:16:00,68.6,67.7,29.80,North,5,0.0,2.0,97,0.00,OVC,,0.00,0.0,WeatherDisplay:10.37,2013-09-01 10:16:00,
2013-09-01 06:21:00,68.4,67.2,29.80,North,5,0.0,0.0,96,0.00,OVC,,0.00,0.0,WeatherDisplay:10.37,2013-09-01 10:21:00,
2013-09-01 06:26:00,68.4,67.2,29.80,North,5,0.0,0.0,96,0.00,OVC,,0.00,0.0,WeatherDisplay:10.37,2013-09-01 10:26:00,
2013-09-01 06:31:00,68.2,67.0,29.81,North,5,0.0,0.0,96,0.00,OVC,,0.00,0.0,WeatherDisplay:10.37,2013-09-01 10:31:00,
2013-09-01 06:36:00,68.2,67.0,29.81,North,5,0.0,0.0,96,0.00,OVC,,0.00,0.0,WeatherDisplay:10.37,2013-09-01 10:36:00,
2013-09-01 06:41:00,68.1,66.9,29.81,North,5,0.0,0.0,96,0.00,OVC,,0.00,0.0,WeatherDisplay:10.37,2013-09-01 10:41:00,
2013-09-01 06:51:00,68.1,66.9,29.81,North,5,0.0,0.0,96,0.00,OVC,,0.00,0.0,WeatherDisplay:10.37,2013-09-01 10:51:00,
2013-09-01 07:01:00,67.9,66.7,29.81,North,5,0.0,0.0,96,0.00,OVC,,0.00,0.0,WeatherDisplay:10.37,2013-09-01 11:01:00,
2013-09-01 07:06:00,67.9,66.7,29.81,North,5,0.0,0.0,96,0.00,OVC,,0.00,0.0,WeatherDisplay:10.37,2013-09-01 11:06:00,
2013-09-01 07:11:00,68.1,66.9,29.81,North,5,0.0,0.0,96,0.00,OVC,,0.00,0.0,WeatherDisplay:10.37,2013-09-01 11:11:00,
2013-09-01 07:21:00,68.1,66.9,29.81,North,5,0.0,0.0,96,0.00,OVC,,0.00,0.0,WeatherDisplay:10.37,2013-09-01 11:21:00,
2013-09-01 07:31:00,68.2,67.0,29.82,North,5,0.0,0.0,96,0.00,OVC,,0.00,0.0,WeatherDisplay:10.37,2013-09-01 11:31:00,
2013-09-01 07:36:00,68.2,67.0,29.82,North,5,0.0,0.0,96,0.00,OVC,,0.00,0.0,WeatherDisplay:10.37,2013-09-01 11:36:00,
2013-09-01 07:41:00,68.2,67.0,29.82,North,5,0.0,0.0,96,0.00,OVC,,0.00,0.0,WeatherDisplay:10.37,2013-09-01 11:41:00,
2013-09-01 07:46:00,68.4,67.2,29.82,North,5,0.0,0.0,96,0.00,OVC,,0.00,0.0,WeatherDisplay:10.37,2013-09-01 11:46:00,
2013-09-01 07:51:00,68.4,67.2,29.82,North,5,0.0,0.0,96,0.00,OVC,,0.00,0.0,WeatherDisplay:10.37,2013-09-01 11:51:00,
2013-09-01 07:56:00,68.6,67.4,29.82,North,5,0.0,0.0,96,0.00,OVC,,0.00,0.0,WeatherDisplay:10.37,2013-09-01 11:56:00,
2013-09-01 08:01:00,68.7,67.5,29.82,North,5,0.0,0.0,96,0.00,OVC,,0.00,0.0,WeatherDisplay:10.37,2013-09-01 12:01:00,
2013-09-01 08:06:00,68.9,67.7,29.82,North,5,0.0,0.0,96,0.00,BKN,,0.00,0.0,WeatherDisplay:10.37,2013-09-01 12:06:00,
2013-09-01 08:11:00,69.1,67.9,29.82,North,5,0.0,0.0,96,0.00,BKN,,0.00,0.0,WeatherDisplay:10.37,2013-09-01 12:11:00,
2013-09-01 08:16:00,69.1,67.9,29.81,North,5,0.0,0.0,96,0.00,BKN,,0.00,0.0,WeatherDisplay:10.37,2013-09-01 12:16:00,
2013-09-01 08:21:00,69.2,67.7,29.81,North,5,0.0,0.0,95,0.00,BKN,,0.00,0.0,WeatherDisplay:10.37,2013-09-01 12:21:00,
2013-09-01 08:26:00,69.2,67.7,29.81,North,5,0.0,0.0,95,0.00,BKN,,0.00,0.0,WeatherDisplay:10.37,2013-09-01 12:26:00,
2013-09-01 08:31:00,69.4,67.9,29.82,North,5,0.0,1.0,95,0.00,BKN,,0.00,0.0,WeatherDisplay:10.37,2013-09-01 12:31:00,
2013-09-01 08:36:00,69.4,67.9,29.82,North,5,0.0,1.0,95,0.00,BKN,,0.00,21.0,WeatherDisplay:10.37,2013-09-01 12:36:00,
2013-09-01 08:41:00,69.6,67.8,29.82,North,5,0.0,4.0,94,0.00,BKN,,0.00,19.0,WeatherDisplay:10.37,2013-09-01 12:41:00,
2013-09-01 08:46:00,69.6,67.8,29.83,North,5,0.0,4.0,94,0.00,BKN,,0.00,0.0,WeatherDisplay:10.37,2013-09-01 12:46:00,
2013-09-01 08:51:00,69.6,67.8,29.83,North,5,0.0,3.0,94,0.00,BKN,,0.00,0.0,WeatherDisplay:10.37,2013-09-01 12:51:00,
2013-09-01 08:56:00,69.6,67.5,29.83,North,5,0.0,3.0,93,0.00,BKN,,0.00,0.0,WeatherDisplay:10.37,2013-09-01 12:56:00,
2013-09-01 09:01:00,69.7,67.6,29.83,North,5,0.0,2.0,93,0.00,BKN,,0.00,0.0,WeatherDisplay:10.37,2013-09-01 13:01:00,
2013-09-01 09:06:00,69.7,67.6,29.83,North,5,1.0,3.0,93,0.00,BKN,,0.00,0.0,WeatherDisplay:10.37,2013-09-01 13:06:00,
2013-09-01 09:11:00,69.9,67.8,29.83,North,5,0.0,0.0,93,0.00,BKN,,0.00,0.0,WeatherDisplay:10.37,2013-09-01 13:11:00,
2013-09-01 09:16:00,70.1,67.7,29.82,North,5,0.0,0.0,92,0.00,BKN,,0.00,0.0,WeatherDisplay:10.37,2013-09-01 13:16:00,
2013-09-01 09:21:00,70.2,67.8,29.82,North,5,0.0,0.0,92,0.00,BKN,,0.00,0.0,WeatherDisplay:10.37,2013-09-01 13:21:00,
2013-09-01 09:31:00,70.4,67.6,29.82,North,5,1.0,3.0,91,0.00,BKN,,0.00,0.0,WeatherDisplay:10.37,2013-09-01 13:31:00,
2013-09-01 09:36:00,70.4,67.6,29.82,North,11,1.0,6.0,91,0.00,BKN,,0.00,0.0,WeatherDisplay:10.37,2013-09-01 13:36:00,
2013-09-01 09:41:00,70.6,67.5,29.82,NNE,12,0.0,4.0,90,0.00,BKN,,0.00,0.0,WeatherDisplay:10.37,2013-09-01 13:41:00,
2013-09-01 09:46:00,70.7,67.7,29.82,NNE,13,0.0,3.0,90,0.00,BKN,,0.00,0.0,WeatherDisplay:10.37,2013-09-01 13:46:00,
2013-09-01 09:51:00,71.1,68.0,29.82,NNE,13,1.0,4.0,90,0.00,BKN,,0.00,0.0,WeatherDisplay:10.37,2013-09-01 13:51:00,
2013-09-01 09:56:00,71.1,67.7,29.82,NNE,13,1.0,7.0,89,0.00,BKN,,0.00,0.0,WeatherDisplay:10.37,2013-09-01 13:56:00,
2013-09-01 10:01:00,71.3,67.9,29.82,NNE,12,0.0,4.0,89,0.00,BKN,,0.00,0.0,WeatherDisplay:10.37,2013-09-01 14:01:00,
2013-09-01 10:06:00,71.5,67.8,29.82,North,11,0.0,1.0,88,0.00,BKN,,0.00,0.0,WeatherDisplay:10.37,2013-09-01 14:06:00,
2013-09-01 10:11:00,71.5,67.8,29.82,North,6,1.0,6.0,88,0.00,BKN,,0.00,0.0,WeatherDisplay:10.37,2013-09-01 14:11:00,
2013-09-01 10:21:00,71.8,67.7,29.82,NNE,14,1.0,4.0,87,0.00,BKN,,0.00,0.0,WeatherDisplay:10.37,2013-09-01 14:21:00,
2013-09-01 10:26:00,72.1,68.0,29.82,NNE,17,1.0,4.0,87,0.00,BKN,,0.00,0.0,WeatherDisplay:10.37,2013-09-01 14:26:00,
2013-09-01 10:31:00,72.3,67.9,29.81,NNE,16,2.0,6.0,86,0.00,BKN,,0.00,0.0,WeatherDisplay:10.37,2013-09-01 14:31:00,
2013-09-01 10:36:00,72.7,68.3,29.81,NNE,14,0.0,5.0,86,0.00,BKN,,0.00,0.0,WeatherDisplay:10.37,2013-09-01 14:36:00,
2013-09-01 10:41:00,73.0,68.2,29.81,North,11,2.0,5.0,85,0.00,BKN,,0.00,0.0,WeatherDisplay:10.37,2013-09-01 14:41:00,
2013-09-01 10:46:00,73.2,68.1,29.81,North,11,5.0,7.0,84,0.00,BKN,,0.00,0.0,WeatherDisplay:10.37,2013-09-01 14:46:00,
2013-09-01 10:51:00,73.5,68.7,29.81,NNE,17,0.0,9.0,85,0.00,BKN,,0.00,0.0,WeatherDisplay:10.37,2013-09-01 14:51:00,
2013-09-01 10:56:00,73.7,67.8,29.81,NNE,16,5.0,9.0,82,0.00,BKN,,0.00,0.0,WeatherDisplay:10.37,2013-09-01 14:56:00,
2013-09-01 11:01:00,73.5,67.7,29.81,NNE,12,3.0,9.0,82,0.00,BKN,,0.00,0.0,WeatherDisplay:10.37,2013-09-01 15:01:00,
2013-09-01 11:06:00,73.4,67.9,29.81,North,10,5.0,8.0,83,0.00,BKN,,0.00,0.0,WeatherDisplay:10.37,2013-09-01 15:06:00,
2013-09-01 11:11:00,73.4,67.9,29.81,North,11,3.0,9.0,83,0.00,BKN,,0.00,0.0,WeatherDisplay:10.37,2013-09-01 15:11:00,
2013-09-01 11:16:00,73.4,67.9,29.81,NNE,13,3.0,10.0,83,0.00,BKN,,0.00,0.0,WeatherDisplay:10.37,2013-09-01 15:16:00,
2013-09-01 11:21:00,73.3,67.8,29.81,NNE,15,1.0,8.0,83,0.00,BKN,,0.00,0.0,WeatherDisplay:10.37,2013-09-01 15:21:00,
2013-09-01 11:26:00,73.5,68.0,29.81,NNE,15,3.0,8.0,83,0.00,BKN,,0.00,0.0,WeatherDisplay:10.37,2013-09-01 15:26:00,
2013-09-01 11:36:00,73.9,68.4,29.81,NNE,13,3.0,7.0,83,0.00,BKN,,0.00,0.0,WeatherDisplay:10.37,2013-09-01 15:36:00,
2013-09-01 11:41:00,74.1,68.6,29.81,NNE,18,3.0,9.0,83,0.00,BKN,,0.00,0.0,WeatherDisplay:10.37,2013-09-01 15:41:00,
2013-09-01 11:46:00,74.2,68.3,29.80,NNE,19,1.0,8.0,82,0.00,BKN,,0.00,0.0,WeatherDisplay:10.37,2013-09-01 15:46:00,
2013-09-01 11:51:00,74.6,68.7,29.80,NNE,16,2.0,6.0,82,0.00,BKN,,0.00,0.0,WeatherDisplay:10.37,2013-09-01 15:51:00,
2013-09-01 11:56:00,75.1,68.8,29.80,NNE,18,1.0,4.0,81,0.00,BKN,,0.00,0.0,WeatherDisplay:10.37,2013-09-01 15:56:00,
2013-09-01 12:01:00,75.5,68.9,29.80,NNE,33,0.0,2.0,80,0.00,BKN,,0.00,0.0,WeatherDisplay:10.37,2013-09-01 16:01:00,
2013-09-01 12:06:00,75.6,68.6,29.80,NNE,30,3.0,8.0,79,0.00,BKN,,0.00,0.0,WeatherDisplay:10.37,2013-09-01 16:06:00,
2013-09-01 12:11:00,75.3,68.7,29.80,NNE,23,7.0,12.0,80,0.00,BKN,,0.00,0.0,WeatherDisplay:10.37,2013-09-01 16:11:00,
2013-09-01 12:21:00,75.3,68.7,29.80,NNE,24,5.0,9.0,80,0.00,OVC,,0.00,0.0,WeatherDisplay:10.37,2013-09-01 16:21:00,
2013-09-01 12:26:00,75.0,68.4,29.80,NNE,30,2.0,7.0,80,0.00,OVC,,0.00,42.0,WeatherDisplay:10.37,2013-09-01 16:26:00,
2013-09-01 12:31:00,74.8,68.6,29.81,NNE,29,3.0,9.0,81,0.00,OVC,,0.00,88.0,WeatherDisplay:10.37,2013-09-01 16:31:00,
2013-09-01 12:36:00,74.7,68.5,29.81,NNE,17,6.0,10.0,81,0.00,OVC,,0.00,67.0,WeatherDisplay:10.37,2013-09-01 16:36:00,
2013-09-01 12:41:00,74.6,68.4,29.81,NNE,13,5.0,13.0,81,0.00,OVC,,0.00,116.0,WeatherDisplay:10.37,2013-09-01 16:41:00,
2013-09-01 12:46:00,74.4,68.5,29.81,NNE,16,2.0,8.0,82,0.00,OVC,,0.00,105.0,WeatherDisplay:10.37,2013-09-01 16:46:00,
2013-09-01 12:51:00,74.4,68.5,29.81,NNE,18,5.0,9.0,82,0.00,OVC,,0.00,155.0,WeatherDisplay:10.37,2013-09-01 16:51:00,
2013-09-01 13:01:00,74.2,68.0,29.80,NNE,24,3.0,8.0,81,0.00,OVC,,0.00,657.0,WeatherDisplay:10.37,2013-09-01 17:01:00,
2013-09-01 13:06:00,74.6,68.4,29.80,NNE,30,3.0,6.0,81,0.00,BKN,,0.00,657.0,WeatherDisplay:10.37,2013-09-01 17:06:00,
2013-09-01 13:11:00,74.9,69.0,29.80,NNE,28,3.0,7.0,82,0.00,BKN,,0.00,515.0,WeatherDisplay:10.37,2013-09-01 17:11:00,
2013-09-01 13:16:00,75.0,68.8,29.79,NNE,22,1.0,8.0,81,0.00,BKN,,0.00,114.0,WeatherDisplay:10.37,2013-09-01 17:16:00,
2013-09-01 13:21:00,75.3,68.7,29.79,NNE,18,3.0,7.0,80,0.00,BKN,,0.00,482.0,WeatherDisplay:10.37,2013-09-01 17:21:00,
2013-09-01 13:26:00,75.1,68.5,29.79,NNE,25,1.0,6.0,80,0.00,BKN,,0.00,534.0,WeatherDisplay:10.37,2013-09-01 17:26:00,
2013-09-01 13:31:00,75.5,68.9,29.79,NNE,26,5.0,7.0,80,0.00,BKN,,0.00,494.0,WeatherDisplay:10.37,2013-09-01 17:31:00,
2013-09-01 13:36:00,75.5,68.9,29.79,NNE,28,3.0,8.0,80,0.00,BKN,,0.00,555.0,WeatherDisplay:10.37,2013-09-01 17:36:00,
2013-09-01 13:41:00,75.8,69.2,29.79,NNE,31,1.0,5.0,80,0.00,BKN,,0.00,589.0,WeatherDisplay:10.37,2013-09-01 17:41:00,
2013-09-01 13:46:00,76.4,68.7,29.78,NE,43,2.0,5.0,77,0.00,BKN,,0.00,441.0,WeatherDisplay:10.37,2013-09-01 17:46:00,
2013-09-01 13:51:00,76.4,68.7,29.78,NE,37,3.0,8.0,77,0.00,BKN,,0.00,531.0,WeatherDisplay:10.37,2013-09-01 17:51:00,
2013-09-01 13:56:00,76.2,68.5,29.78,NE,35,1.0,6.0,77,0.00,BKN,,0.00,105.0,WeatherDisplay:10.37,2013-09-01 17:56:00,
2013-09-01 14:01:00,76.1,68.4,29.79,NE,35,2.0,7.0,77,0.00,BKN,,0.00,598.0,WeatherDisplay:10.37,2013-09-01 18:01:00,
2013-09-01 14:06:00,75.6,67.9,29.79,NNE,28,3.0,7.0,77,0.00,BKN,,0.00,9.0,WeatherDisplay:10.37,2013-09-01 18:06:00,
2013-09-01 14:11:00,75.3,68.0,29.79,NE,35,1.0,6.0,78,0.00,BKN,,0.00,199.0,WeatherDisplay:10.37,2013-09-01 18:11:00,
2013-09-01 14:21:00,74.9,67.9,29.78,NNE,30,1.0,5.0,79,0.00,BKN,,0.00,197.0,WeatherDisplay:10.37,2013-09-01 18:21:00,
2013-09-01 14:31:00,75.0,67.7,29.78,NNE,20,3.0,9.0,78,0.00,BKN,,0.00,183.0,WeatherDisplay:10.37,2013-09-01 18:31:00,
2013-09-01 14:36:00,74.9,67.9,29.78,NNE,16,5.0,8.0,79,0.00,BKN,,0.00,97.0,WeatherDisplay:10.37,2013-09-01 18:36:00,
2013-09-01 14:41:00,74.6,67.7,29.78,NNE,22,2.0,7.0,79,0.00,BKN,,0.00,111.0,WeatherDisplay:10.37,2013-09-01 18:41:00,
2013-09-01 14:46:00,74.2,67.6,29.78,NNE,15,3.0,8.0,80,0.00,BKN,,0.00,42.0,WeatherDisplay:10.37,2013-09-01 18:46:00,
2013-09-01 14:51:00,74.1,67.5,29.78,NNE,16,5.0,8.0,80,0.00,OVC,,0.00,146.0,WeatherDisplay:10.37,2013-09-01 18:51:00,
2013-09-01 14:56:00,74.2,67.6,29.78,NNE,19,2.0,9.0,80,0.00,OVC,,0.00,362.0,WeatherDisplay:10.37,2013-09-01 18:56:00,
2013-09-01 15:01:00,74.2,67.6,29.77,NNE,16,2.0,7.0,80,0.00,OVC,,0.00,381.0,WeatherDisplay:10.37,2013-09-01 19:01:00,
2013-09-01 15:06:00,74.1,67.5,29.77,NNE,19,2.0,9.0,80,0.00,OVC,,0.00,7.0,WeatherDisplay:10.37,2013-09-01 19:06:00,
2013-09-01 15:11:00,73.7,67.1,29.77,NNE,21,1.0,7.0,80,0.00,OVC,,0.00,47.0,WeatherDisplay:10.37,2013-09-01 19:11:00,
2013-09-01 15:21:00,73.7,67.5,29.78,NNE,18,1.0,5.0,81,0.00,OVC,,0.00,497.0,WeatherDisplay:10.37,2013-09-01 19:21:00,
2013-09-01 15:26:00,73.9,67.3,29.78,NNE,26,1.0,5.0,80,0.00,OVC,,0.00,0.0,WeatherDisplay:10.37,2013-09-01 19:26:00,
2013-09-01 15:36:00,73.1,67.3,29.77,NNE,20,2.0,10.0,82,0.00,OVC,,0.00,0.0,WeatherDisplay:10.37,2013-09-01 19:36:00,
2013-09-01 15:41:00,72.8,67.3,29.77,NNE,25,3.0,6.0,83,0.00,OVC,,0.00,60.0,WeatherDisplay:10.37,2013-09-01 19:41:00,
2013-09-01 15:46:00,73.0,67.5,29.76,NNE,19,3.0,8.0,83,0.00,OVC,,0.00,0.0,WeatherDisplay:10.37,2013-09-01 19:46:00,
2013-09-01 15:51:00,73.0,67.2,29.76,NNE,14,3.0,6.0,82,0.00,OVC,,0.00,163.0,WeatherDisplay:10.37,2013-09-01 19:51:00,
2013-09-01 15:56:00,73.2,67.7,29.76,NNE,14,0.0,4.0,83,0.00,OVC,,0.00,5.0,WeatherDisplay:10.37,2013-09-01 19:56:00,
2013-09-01 16:01:00,73.2,67.0,29.76,NNE,21,3.0,9.0,81,0.00,OVC,,0.00,39.0,WeatherDisplay:10.37,2013-09-01 20:01:00,
2013-09-01 16:06:00,73.3,67.4,29.76,NNE,21,1.0,5.0,82,0.00,OVC,,0.00,341.0,WeatherDisplay:10.37,2013-09-01 20:06:00,
2013-09-01 16:11:00,73.7,67.5,29.76,NNE,20,1.0,3.0,81,0.00,OVC,,0.00,62.0,WeatherDisplay:10.37,2013-09-01 20:11:00,
2013-09-01 16:16:00,73.9,67.3,29.75,NNE,16,1.0,5.0,80,0.00,OVC,,0.00,65.0,WeatherDisplay:10.37,2013-09-01 20:16:00,
2013-09-01 16:21:00,73.7,67.1,29.75,NNE,16,0.0,5.0,80,0.00,OVC,,0.00,100.0,WeatherDisplay:10.37,2013-09-01 20:21:00,
2013-09-01 16:26:00,74.1,67.9,29.75,NNE,12,0.0,5.0,81,0.00,OVC,,0.00,415.0,WeatherDisplay:10.37,2013-09-01 20:26:00,
2013-09-01 16:31:00,74.6,67.7,29.76,North,357,0.0,4.0,79,0.00,OVC,,0.00,127.0,WeatherDisplay:10.37,2013-09-01 20:31:00,
2013-09-01 16:36:00,74.3,67.4,29.76,NNE,12,2.0,7.0,79,0.00,BKN,,0.00,0.0,WeatherDisplay:10.37,2013-09-01 20:36:00,
2013-09-01 16:41:00,74.1,67.5,29.76,NNE,15,0.0,4.0,80,0.00,BKN,,0.00,0.0,WeatherDisplay:10.37,2013-09-01 20:41:00,
2013-09-01 16:46:00,73.9,67.3,29.75,NNE,19,1.0,3.0,80,0.00,BKN,,0.00,0.0,WeatherDisplay:10.37,2013-09-01 20:46:00,
2013-09-01 16:51:00,73.7,67.1,29.75,NNE,19,0.0,1.0,80,0.00,BKN,,0.00,0.0,WeatherDisplay:10.37,2013-09-01 20:51:00,
2013-09-01 17:01:00,73.4,67.2,29.75,NNE,21,1.0,4.0,81,0.00,BKN,,0.00,0.0,WeatherDisplay:10.37,2013-09-01 21:01:00,
2013-09-01 17:06:00,73.2,67.0,29.75,NNE,24,0.0,1.0,81,0.00,BKN,,0.00,0.0,WeatherDisplay:10.37,2013-09-01 21:06:00,
2013-09-01 17:11:00,73.0,67.2,29.75,NNE,26,0.0,0.0,82,0.00,BKN,,0.00,0.0,WeatherDisplay:10.37,2013-09-01 21:11:00,
2013-09-01 17:16:00,73.0,67.2,29.75,NNE,26,1.0,4.0,82,0.00,BKN,,0.00,0.0,WeatherDisplay:10.37,2013-09-01 21:16:00,
2013-09-01 17:21:00,72.8,67.3,29.75,NNE,26,0.0,1.0,83,0.00,BKN,,0.00,0.0,WeatherDisplay:10.37,2013-09-01 21:21:00,
2013-09-01 17:26:00,72.6,67.1,29.75,NNE,24,1.0,4.0,83,0.00,BKN,,0.00,0.0,WeatherDisplay:10.37,2013-09-01 21:26:00,
2013-09-01 17:31:00,72.5,67.4,29.75,NNE,23,0.0,2.0,84,0.00,BKN,,0.00,0.0,WeatherDisplay:10.37,2013-09-01 21:31:00,
2013-09-01 17:36:00,72.5,67.4,29.75,North,355,1.0,5.0,84,0.00,BKN,,0.00,0.0,WeatherDisplay:10.37,2013-09-01 21:36:00,
2013-09-01 17:41:00,72.5,67.7,29.75,NNW,340,1.0,4.0,85,0.00,BKN,,0.00,0.0,WeatherDisplay:10.37,2013-09-01 21:41:00,
2013-09-01 17:46:00,72.4,67.3,29.76,NNW,331,0.0,1.0,84,0.00,BKN,,0.00,0.0,WeatherDisplay:10.37,2013-09-01 21:46:00,
2013-09-01 17:51:00,72.1,67.3,29.76,NNW,338,1.0,4.0,85,0.00,BKN,,0.00,0.0,WeatherDisplay:10.37,2013-09-01 21:51:00,
2013-09-01 17:56:00,72.1,67.7,29.76,NNW,348,1.0,4.0,86,0.00,BKN,,0.00,0.0,WeatherDisplay:10.37,2013-09-01 21:56:00,
2013-09-01 18:01:00,72.0,67.6,29.77,NNW,348,0.0,3.0,86,0.00,BKN,,0.00,0.0,WeatherDisplay:10.37,2013-09-01 22:01:00,
2013-09-01 18:06:00,71.8,67.4,29.77,North,358,0.0,5.0,86,0.00,BKN,,0.00,0.0,WeatherDisplay:10.37,2013-09-01 22:06:00,
2013-09-01 18:11:00,71.8,67.4,29.77,North,5,0.0,0.0,86,0.00,BKN,,0.00,0.0,WeatherDisplay:10.37,2013-09-01 22:11:00,
2013-09-01 18:16:00,71.8,67.4,29.75,North,5,0.0,0.0,86,0.00,BKN,,0.00,0.0,WeatherDisplay:10.37,2013-09-01 22:16:00,
2013-09-01 18:21:00,71.7,67.3,29.75,North,5,0.0,1.0,86,0.00,BKN,,0.00,0.0,WeatherDisplay:10.37,2013-09-01 22:21:00,
2013-09-01 18:26:00,71.8,67.7,29.75,North,5,0.0,0.0,87,0.00,BKN,,0.00,0.0,WeatherDisplay:10.37,2013-09-01 22:26:00,
2013-09-01 18:36:00,71.5,67.8,29.75,North,5,0.0,2.0,88,0.00,RA,,0.01,0.0,WeatherDisplay:10.37,2013-09-01 22:36:00,
2013-09-01 18:41:00,71.4,68.0,29.75,North,5,0.0,0.0,89,0.00,BKN,,0.01,0.0,WeatherDisplay:10.37,2013-09-01 22:41:00,
2013-09-01 18:46:00,71.2,67.8,29.75,North,5,0.0,0.0,89,0.00,BKN,,0.01,0.0,WeatherDisplay:10.37,2013-09-01 22:46:00,
2013-09-01 18:51:00,71.1,68.0,29.75,North,5,0.0,0.0,90,0.00,BKN,,0.01,0.0,WeatherDisplay:10.37,2013-09-01 22:51:00,
2013-09-01 18:56:00,71.0,67.6,29.75,North,5,0.0,0.0,89,0.00,BKN,,0.01,0.0,WeatherDisplay:10.37,2013-09-01 22:56:00,
2013-09-01 19:01:00,70.9,67.8,29.74,North,5,0.0,0.0,90,0.00,BKN,,0.01,0.0,WeatherDisplay:10.37,2013-09-01 23:01:00,
2013-09-01 19:06:00,70.9,67.8,29.74,North,5,0.0,0.0,90,0.00,OVC,,0.01,0.0,WeatherDisplay:10.37,2013-09-01 23:06:00,
2013-09-01 19:11:00,70.9,67.8,29.74,North,5,0.0,2.0,90,0.00,OVC,,0.01,0.0,WeatherDisplay:10.37,2013-09-01 23:11:00,
2013-09-01 19:16:00,70.9,67.8,29.74,North,5,0.0,0.0,90,0.00,OVC,,0.01,0.0,WeatherDisplay:10.37,2013-09-01 23:16:00,
2013-09-01 19:21:00,70.8,67.7,29.74,North,5,0.0,0.0,90,0.00,OVC,,0.01,0.0,WeatherDisplay:10.37,2013-09-01 23:21:00,
2013-09-01 19:31:00,70.9,68.1,29.75,North,5,0.0,0.0,91,0.00,OVC,,0.01,0.0,WeatherDisplay:10.37,2013-09-01 23:31:00,
2013-09-01 19:36:00,70.9,68.1,29.75,North,5,0.0,0.0,91,0.00,BKN,,0.01,0.0,WeatherDisplay:10.37,2013-09-01 23:36:00,
2013-09-01 19:41:00,70.8,68.0,29.75,North,5,0.0,1.0,91,0.00,BKN,,0.01,0.0,WeatherDisplay:10.37,2013-09-01 23:41:00,
2013-09-01 19:46:00,70.8,68.0,29.75,North,5,1.0,3.0,91,0.00,BKN,,0.01,0.0,WeatherDisplay:10.37,2013-09-01 23:46:00,
2013-09-01 19:51:00,70.6,67.9,29.75,North,5,0.0,1.0,91,0.00,BKN,,0.01,0.0,WeatherDisplay:10.37,2013-09-01 23:51:00,
2013-09-01 19:56:00,70.6,67.8,29.75,North,5,0.0,0.0,91,0.00,BKN,,0.01,0.0,WeatherDisplay:10.37,2013-09-01 23:56:00,
2013-09-01 20:01:00,70.4,67.6,29.75,North,5,0.0,0.0,91,0.00,BKN,,0.01,0.0,WeatherDisplay:10.37,2013-09-02 00:01:00,
2013-09-01 20:06:00,70.4,67.6,29.75,North,5,0.0,0.0,91,0.00,BKN,,0.01,0.0,WeatherDisplay:10.37,2013-09-02 00:06:00,
2013-09-01 20:11:00,70.3,67.5,29.75,North,5,0.0,0.0,91,0.00,BKN,,0.01,0.0,WeatherDisplay:10.37,2013-09-02 00:11:00,
2013-09-01 20:16:00,70.3,67.9,29.74,North,5,0.0,0.0,92,0.00,BKN,,0.01,0.0,WeatherDisplay:10.37,2013-09-02 00:16:00,
2013-09-01 20:21:00,70.3,67.9,29.74,North,5,0.0,0.0,92,0.00,BKN,,0.01,0.0,WeatherDisplay:10.37,2013-09-02 00:21:00,
2013-09-01 20:26:00,70.1,67.7,29.74,North,5,0.0,0.0,92,0.00,BKN,,0.01,0.0,WeatherDisplay:10.37,2013-09-02 00:26:00,
2013-09-01 20:31:00,70.1,67.7,29.75,North,5,0.0,0.0,92,0.00,BKN,,0.01,0.0,WeatherDisplay:10.37,2013-09-02 00:31:00,
2013-09-01 20:41:00,69.9,67.8,29.75,North,3,0.0,3.0,93,0.00,BKN,,0.01,0.0,WeatherDisplay:10.37,2013-09-02 00:41:00,
2013-09-01 20:46:00,69.9,67.8,29.75,North,356,0.0,4.0,93,0.00,BKN,,0.01,0.0,WeatherDisplay:10.37,2013-09-02 00:46:00,
2013-09-01 20:51:00,69.7,67.6,29.75,North,349,0.0,4.0,93,0.00,BKN,,0.01,0.0,WeatherDisplay:10.37,2013-09-02 00:51:00,
2013-09-01 20:56:00,69.6,67.5,29.75,NNW,348,0.0,3.0,93,0.00,BKN,,0.01,0.0,WeatherDisplay:10.37,2013-09-02 00:56:00,
2013-09-01 21:01:00,69.6,67.5,29.75,NNW,348,0.0,1.0,93,0.00,BKN,,0.01,0.0,WeatherDisplay:10.37,2013-09-02 01:01:00,
2013-09-01 21:06:00,69.4,67.6,29.75,NNW,348,0.0,0.0,94,0.00,BKN,,0.01,0.0,WeatherDisplay:10.37,2013-09-02 01:06:00,
2013-09-01 21:11:00,69.4,67.6,29.75,NNW,348,0.0,0.0,94,0.00,BKN,,0.01,0.0,WeatherDisplay:10.37,2013-09-02 01:11:00,
2013-09-01 21:16:00,69.2,67.4,29.75,NNW,348,0.0,0.0,94,0.00,BKN,,0.01,0.0,WeatherDisplay:10.37,2013-09-02 01:16:00,
2013-09-01 21:21:00,69.2,67.4,29.75,NNW,348,0.0,0.0,94,0.00,BKN,,0.01,0.0,WeatherDisplay:10.37,2013-09-02 01:21:00,
2013-09-01 21:26:00,69.2,67.4,29.75,NNW,348,0.0,0.0,94,0.00,BKN,,0.01,0.0,WeatherDisplay:10.37,2013-09-02 01:26:00,
2013-09-01 21:31:00,69.2,67.4,29.74,NNW,348,0.0,0.0,94,0.00,BKN,,0.01,0.0,WeatherDisplay:10.37,2013-09-02 01:31:00,
2013-09-01 21:36:00,69.1,67.3,29.74,NNW,348,0.0,0.0,94,0.00,BKN,,0.01,0.0,WeatherDisplay:10.37,2013-09-02 01:36:00,
2013-09-01 21:41:00,68.9,67.1,29.74,NNW,348,0.0,0.0,94,0.00,BKN,,0.01,0.0,WeatherDisplay:10.37,2013-09-02 01:41:00,
2013-09-01 21:46:00,68.8,67.0,29.75,NNW,348,0.0,1.0,94,0.00,BKN,,0.01,0.0,WeatherDisplay:10.37,2013-09-02 01:46:00,
2013-09-01 21:51:00,68.7,66.9,29.75,NNW,348,0.0,0.0,94,0.00,BKN,,0.01,0.0,WeatherDisplay:10.37,2013-09-02 01:51:00,
2013-09-01 21:56:00,68.6,66.8,29.75,NNW,348,0.0,1.0,94,0.00,BKN,,0.01,0.0,WeatherDisplay:10.37,2013-09-02 01:56:00,
2013-09-01 22:01:00,68.6,67.1,29.75,NNW,348,0.0,1.0,95,0.00,BKN,,0.01,0.0,WeatherDisplay:10.37,2013-09-02 02:01:00,
2013-09-01 22:06:00,68.6,67.1,29.75,NNW,343,0.0,5.0,95,0.00,BKN,,0.01,0.0,WeatherDisplay:10.37,2013-09-02 02:06:00,
2013-09-01 22:11:00,68.7,67.2,29.75,West,273,1.0,6.0,95,0.00,BKN,,0.01,0.0,WeatherDisplay:10.37,2013-09-02 02:11:00,
2013-09-01 22:21:00,68.9,67.4,29.76,West,267,1.0,4.0,95,0.00,BKN,,0.01,0.0,WeatherDisplay:10.37,2013-09-02 02:21:00,
2013-09-01 22:26:00,68.9,67.4,29.76,West,267,0.0,5.0,95,0.00,BKN,,0.01,0.0,WeatherDisplay:10.37,2013-09-02 02:26:00,
2013-09-01 22:36:00,68.7,67.2,29.75,West,267,0.0,5.0,95,0.00,SCT,,0.01,0.0,WeatherDisplay:10.37,2013-09-02 02:36:00,
2013-09-01 22:41:00,68.6,67.1,29.75,West,266,0.0,3.0,95,0.00,SCT,,0.01,0.0,WeatherDisplay:10.37,2013-09-02 02:41:00,
2013-09-01 22:51:00,68.4,66.9,29.74,West,265,0.0,0.0,95,0.00,SCT,,0.01,0.0,WeatherDisplay:10.37,2013-09-02 02:51:00,
2013-09-01 22:56:00,68.4,66.9,29.74,West,265,0.0,0.0,95,0.00,SCT,,0.01,0.0,WeatherDisplay:10.37,2013-09-02 02:56:00,
2013-09-01 23:01:00,68.4,66.9,29.73,West,265,0.0,1.0,95,0.01,RA,,0.02,0.0,WeatherDisplay:10.37,2013-09-02 03:01:00,
2013-09-01 23:06:00,68.4,66.9,29.73,West,265,0.0,2.0,95,0.00,RA,,0.02,0.0,WeatherDisplay:10.37,2013-09-02 03:06:00,
2013-09-01 23:11:00,68.4,66.9,29.73,West,265,0.0,1.0,95,0.00,SCT,,0.02,0.0,WeatherDisplay:10.37,2013-09-02 03:11:00,
2013-09-01 23:16:00,68.4,66.9,29.73,West,260,0.0,4.0,95,0.00,SCT,,0.02,0.0,WeatherDisplay:10.37,2013-09-02 03:16:00,
2013-09-01 23:21:00,68.4,66.9,29.73,WSW,251,0.0,3.0,95,0.00,SCT,,0.02,0.0,WeatherDisplay:10.37,2013-09-02 03:21:00,
2013-09-01 23:31:00,68.4,66.9,29.73,WSW,248,0.0,3.0,95,0.00,SCT,,0.02,0.0,WeatherDisplay:10.37,2013-09-02 03:31:00,
2013-09-01 23:36:00,68.4,66.9,29.73,WSW,246,0.0,5.0,95,0.00,FEW,,0.02,0.0,WeatherDisplay:10.37,2013-09-02 03:36:00,
2013-09-01 23:41:00,68.4,66.9,29.73,WSW,244,0.0,1.0,95,0.00,FEW,,0.02,0.0,WeatherDisplay:10.37,2013-09-02 03:41:00,
2013-09-01 23:51:00,68.4,66.9,29.72,WSW,244,0.0,1.0,95,0.00,FEW,,0.02,0.0,WeatherDisplay:10.37,2013-09-02 03:51:00,